sensor_id;sensor_type;location;lat;lon;timestamp;P1;durP1;ratioP1;P2;durP2;ratioP2
2598;SDS011;1309;48.810;8.954;2023-04-01T00:01:04;1.77;;;0.80;;
2598;SDS011;1309;48.810;8.954;2023-04-01T00:03:34;1.80;;;0.60;;
2598;SDS011;1309;48.810;8.954;2023-04-01T00:06:04;3.17;;;0.57;;
2598;SDS011;1309;48.810;8.954;2023-04-01T00:08:45;2.20;;;0.67;;
2598;SDS011;1309;48.810;8.954;2023-04-01T00:11:15;3.20;;;1.90;;
2598;SDS011;1309;48.810;8.954;2023-04-01T00:13:46;1.60;;;0.50;;
2598;SDS011;1309;48.810;8.954;2023-04-01T00:16:18;2.17;;;0.60;;
2598;SDS011;1309;48.810;8.954;2023-04-01T00:18:50;2.33;;;0.60;;
2598;SDS011;1309;48.810;8.954;2023-04-01T00:21:19;2.07;;;0.80;;
2598;SDS011;1309;48.810;8.954;2023-04-01T00:23:51;1.57;;;0.50;;
2598;SDS011;1309;48.810;8.954;2023-04-01T00:26:21;3.30;;;0.70;;
2598;SDS011;1309;48.810;8.954;2023-04-01T00:28:51;2.00;;;0.60;;
2598;SDS011;1309;48.810;8.954;2023-04-01T00:31:24;1.50;;;0.70;;
2598;SDS011;1309;48.810;8.954;2023-04-01T00:34:00;1.70;;;0.60;;
2598;SDS011;1309;48.810;8.954;2023-04-01T00:36:33;4.23;;;0.87;;
2598;SDS011;1309;48.810;8.954;2023-04-01T00:39:07;2.97;;;0.80;;
2598;SDS011;1309;48.810;8.954;2023-04-01T00:41:46;2.23;;;0.80;;
2598;SDS011;1309;48.810;8.954;2023-04-01T00:44:21;4.17;;;0.73;;
2598;SDS011;1309;48.810;8.954;2023-04-01T00:46:54;1.50;;;0.53;;
2598;SDS011;1309;48.810;8.954;2023-04-01T00:49:29;3.90;;;0.67;;
2598;SDS011;1309;48.810;8.954;2023-04-01T00:52:01;2.10;;;0.77;;
2598;SDS011;1309;48.810;8.954;2023-04-01T00:54:32;2.60;;;0.60;;
2598;SDS011;1309;48.810;8.954;2023-04-01T00:57:02;1.50;;;0.40;;
2598;SDS011;1309;48.810;8.954;2023-04-01T00:59:33;2.00;;;0.60;;
2598;SDS011;1309;48.810;8.954;2023-04-01T01:02:07;2.27;;;0.67;;
2598;SDS011;1309;48.810;8.954;2023-04-01T01:04:37;2.23;;;0.70;;
2598;SDS011;1309;48.810;8.954;2023-04-01T01:07:12;1.80;;;0.50;;
2598;SDS011;1309;48.810;8.954;2023-04-01T01:09:52;2.17;;;0.57;;
2598;SDS011;1309;48.810;8.954;2023-04-01T01:12:28;1.60;;;0.63;;
2598;SDS011;1309;48.810;8.954;2023-04-01T01:15:06;2.13;;;0.63;;
2598;SDS011;1309;48.810;8.954;2023-04-01T01:17:44;1.70;;;0.40;;
2598;SDS011;1309;48.810;8.954;2023-04-01T01:23:42;3.30;;;1.50;;
2598;SDS011;1309;48.810;8.954;2023-04-01T01:26:44;2.03;;;0.73;;
2598;SDS011;1309;48.810;8.954;2023-04-01T01:29:29;1.97;;;0.50;;
2598;SDS011;1309;48.810;8.954;2023-04-01T01:32:17;2.17;;;0.80;;
2598;SDS011;1309;48.810;8.954;2023-04-01T01:34:53;2.03;;;0.50;;
2598;SDS011;1309;48.810;8.954;2023-04-01T01:37:30;2.80;;;1.07;;
2598;SDS011;1309;48.810;8.954;2023-04-01T01:40:03;1.57;;;0.60;;
2598;SDS011;1309;48.810;8.954;2023-04-01T01:42:39;4.60;;;1.00;;
2598;SDS011;1309;48.810;8.954;2023-04-01T01:45:16;1.50;;;0.50;;
2598;SDS011;1309;48.810;8.954;2023-04-01T01:47:49;3.17;;;0.70;;
2598;SDS011;1309;48.810;8.954;2023-04-01T01:50:32;2.57;;;0.70;;
2598;SDS011;1309;48.810;8.954;2023-04-01T01:53:06;2.10;;;0.60;;
2598;SDS011;1309;48.810;8.954;2023-04-01T01:55:43;2.60;;;0.83;;
2598;SDS011;1309;48.810;8.954;2023-04-01T01:58:13;1.87;;;0.70;;
2598;SDS011;1309;48.810;8.954;2023-04-01T02:00:48;3.20;;;0.70;;
2598;SDS011;1309;48.810;8.954;2023-04-01T02:03:19;3.57;;;0.50;;
2598;SDS011;1309;48.810;8.954;2023-04-01T02:05:55;1.40;;;0.40;;
2598;SDS011;1309;48.810;8.954;2023-04-01T02:08:40;1.73;;;0.60;;
2598;SDS011;1309;48.810;8.954;2023-04-01T02:11:16;1.90;;;0.77;;
2598;SDS011;1309;48.810;8.954;2023-04-01T02:13:48;1.60;;;0.60;;
2598;SDS011;1309;48.810;8.954;2023-04-01T02:16:25;1.70;;;0.50;;
2598;SDS011;1309;48.810;8.954;2023-04-01T02:18:58;2.97;;;0.50;;
2598;SDS011;1309;48.810;8.954;2023-04-01T02:21:35;1.73;;;0.50;;
2598;SDS011;1309;48.810;8.954;2023-04-01T02:24:07;1.40;;;0.40;;
2598;SDS011;1309;48.810;8.954;2023-04-01T02:26:39;1.93;;;0.73;;
2598;SDS011;1309;48.810;8.954;2023-04-01T02:29:13;1.70;;;0.57;;
2598;SDS011;1309;48.810;8.954;2023-04-01T02:31:41;1.50;;;0.40;;
2598;SDS011;1309;48.810;8.954;2023-04-01T02:34:14;2.47;;;0.50;;
2598;SDS011;1309;48.810;8.954;2023-04-01T02:36:47;1.50;;;0.60;;
2598;SDS011;1309;48.810;8.954;2023-04-01T02:39:23;1.60;;;0.50;;
2598;SDS011;1309;48.810;8.954;2023-04-01T02:41:53;1.53;;;0.50;;
2598;SDS011;1309;48.810;8.954;2023-04-01T02:44:21;1.37;;;0.30;;
2598;SDS011;1309;48.810;8.954;2023-04-01T02:46:51;1.70;;;0.50;;
2598;SDS011;1309;48.810;8.954;2023-04-01T02:49:24;3.90;;;0.70;;
2598;SDS011;1309;48.810;8.954;2023-04-01T02:51:52;1.60;;;0.50;;
2598;SDS011;1309;48.810;8.954;2023-04-01T02:54:26;6.80;;;0.80;;
2598;SDS011;1309;48.810;8.954;2023-04-01T02:56:56;1.60;;;0.50;;
2598;SDS011;1309;48.810;8.954;2023-04-01T02:59:26;3.80;;;0.50;;
2598;SDS011;1309;48.810;8.954;2023-04-01T03:01:57;3.10;;;0.87;;
2598;SDS011;1309;48.810;8.954;2023-04-01T03:04:30;2.63;;;0.70;;
2598;SDS011;1309;48.810;8.954;2023-04-01T03:06:58;1.70;;;0.33;;
2598;SDS011;1309;48.810;8.954;2023-04-01T03:09:37;1.40;;;0.40;;
2598;SDS011;1309;48.810;8.954;2023-04-01T03:12:08;2.17;;;0.80;;
2598;SDS011;1309;48.810;8.954;2023-04-01T03:14:39;2.10;;;0.57;;
2598;SDS011;1309;48.810;8.954;2023-04-01T03:17:12;1.50;;;0.40;;
2598;SDS011;1309;48.810;8.954;2023-04-01T03:19:45;1.67;;;0.40;;
2598;SDS011;1309;48.810;8.954;2023-04-01T03:22:17;1.70;;;0.50;;
2598;SDS011;1309;48.810;8.954;2023-04-01T03:24:49;1.40;;;0.40;;
2598;SDS011;1309;48.810;8.954;2023-04-01T03:27:19;1.70;;;0.63;;
2598;SDS011;1309;48.810;8.954;2023-04-01T03:29:54;1.50;;;0.50;;
2598;SDS011;1309;48.810;8.954;2023-04-01T03:32:27;1.63;;;0.53;;
2598;SDS011;1309;48.810;8.954;2023-04-01T03:35:02;1.57;;;0.53;;
2598;SDS011;1309;48.810;8.954;2023-04-01T03:37:39;5.53;;;0.50;;
2598;SDS011;1309;48.810;8.954;2023-04-01T03:40:18;1.93;;;0.40;;
2598;SDS011;1309;48.810;8.954;2023-04-01T03:42:48;2.87;;;0.60;;
2598;SDS011;1309;48.810;8.954;2023-04-01T03:45:21;1.63;;;0.80;;
2598;SDS011;1309;48.810;8.954;2023-04-01T03:47:54;1.80;;;0.47;;
2598;SDS011;1309;48.810;8.954;2023-04-01T03:50:29;1.50;;;0.43;;
2598;SDS011;1309;48.810;8.954;2023-04-01T03:52:57;2.23;;;0.43;;
2598;SDS011;1309;48.810;8.954;2023-04-01T03:55:29;2.80;;;0.43;;
2598;SDS011;1309;48.810;8.954;2023-04-01T03:58:02;1.87;;;0.40;;
2598;SDS011;1309;48.810;8.954;2023-04-01T04:00:36;3.33;;;0.80;;
2598;SDS011;1309;48.810;8.954;2023-04-01T04:03:05;1.73;;;0.70;;
2598;SDS011;1309;48.810;8.954;2023-04-01T04:05:36;1.30;;;0.30;;
2598;SDS011;1309;48.810;8.954;2023-04-01T04:08:05;2.67;;;0.47;;
2598;SDS011;1309;48.810;8.954;2023-04-01T04:10:40;3.00;;;0.40;;
2598;SDS011;1309;48.810;8.954;2023-04-01T04:13:09;1.50;;;0.50;;
2598;SDS011;1309;48.810;8.954;2023-04-01T04:15:42;1.67;;;0.57;;
2598;SDS011;1309;48.810;8.954;2023-04-01T04:18:16;2.27;;;0.50;;
2598;SDS011;1309;48.810;8.954;2023-04-01T04:20:47;4.03;;;0.80;;
2598;SDS011;1309;48.810;8.954;2023-04-01T04:23:25;3.30;;;0.53;;
2598;SDS011;1309;48.810;8.954;2023-04-01T04:25:56;1.70;;;0.60;;
2598;SDS011;1309;48.810;8.954;2023-04-01T04:28:25;1.40;;;0.40;;
2598;SDS011;1309;48.810;8.954;2023-04-01T04:30:57;2.07;;;0.43;;
2598;SDS011;1309;48.810;8.954;2023-04-01T04:33:25;3.10;;;0.60;;
2598;SDS011;1309;48.810;8.954;2023-04-01T04:35:54;1.40;;;0.40;;
2598;SDS011;1309;48.810;8.954;2023-04-01T04:38:29;2.80;;;0.70;;
2598;SDS011;1309;48.810;8.954;2023-04-01T04:41:02;2.43;;;0.90;;
2598;SDS011;1309;48.810;8.954;2023-04-01T04:43:33;2.30;;;1.10;;
2598;SDS011;1309;48.810;8.954;2023-04-01T04:46:04;1.60;;;0.60;;
2598;SDS011;1309;48.810;8.954;2023-04-01T04:48:35;3.70;;;1.70;;
2598;SDS011;1309;48.810;8.954;2023-04-01T04:51:14;2.10;;;1.07;;
2598;SDS011;1309;48.810;8.954;2023-04-01T04:53:46;3.40;;;0.60;;
2598;SDS011;1309;48.810;8.954;2023-04-01T04:56:20;1.90;;;0.60;;
2598;SDS011;1309;48.810;8.954;2023-04-01T04:58:53;2.67;;;0.70;;
2598;SDS011;1309;48.810;8.954;2023-04-01T05:01:25;1.50;;;0.53;;
2598;SDS011;1309;48.810;8.954;2023-04-01T05:04:01;2.70;;;1.30;;
2598;SDS011;1309;48.810;8.954;2023-04-01T05:06:29;1.63;;;0.60;;
2598;SDS011;1309;48.810;8.954;2023-04-01T05:09:02;2.43;;;0.63;;
2598;SDS011;1309;48.810;8.954;2023-04-01T05:11:33;2.23;;;0.60;;
2598;SDS011;1309;48.810;8.954;2023-04-01T05:14:02;2.87;;;1.00;;
2598;SDS011;1309;48.810;8.954;2023-04-01T05:16:35;2.13;;;0.57;;
2598;SDS011;1309;48.810;8.954;2023-04-01T05:19:06;1.70;;;0.70;;
2598;SDS011;1309;48.810;8.954;2023-04-01T05:21:35;3.17;;;1.17;;
2598;SDS011;1309;48.810;8.954;2023-04-01T05:24:07;2.20;;;1.03;;
2598;SDS011;1309;48.810;8.954;2023-04-01T05:26:40;3.87;;;1.43;;
2598;SDS011;1309;48.810;8.954;2023-04-01T05:29:09;2.77;;;0.60;;
2598;SDS011;1309;48.810;8.954;2023-04-01T05:31:43;5.40;;;1.07;;
2598;SDS011;1309;48.810;8.954;2023-04-01T05:34:15;2.00;;;0.97;;
2598;SDS011;1309;48.810;8.954;2023-04-01T05:36:43;2.70;;;0.90;;
2598;SDS011;1309;48.810;8.954;2023-04-01T05:39:14;1.70;;;0.77;;
2598;SDS011;1309;48.810;8.954;2023-04-01T05:41:46;1.60;;;0.80;;
2598;SDS011;1309;48.810;8.954;2023-04-01T05:44:30;3.20;;;0.70;;
2598;SDS011;1309;48.810;8.954;2023-04-01T05:47:03;2.07;;;0.70;;
2598;SDS011;1309;48.810;8.954;2023-04-01T05:49:35;3.53;;;0.73;;
2598;SDS011;1309;48.810;8.954;2023-04-01T05:52:03;2.90;;;0.50;;
2598;SDS011;1309;48.810;8.954;2023-04-01T05:54:37;1.83;;;0.63;;
2598;SDS011;1309;48.810;8.954;2023-04-01T05:57:09;2.33;;;1.27;;
2598;SDS011;1309;48.810;8.954;2023-04-01T05:59:38;3.73;;;0.60;;
2598;SDS011;1309;48.810;8.954;2023-04-01T06:02:07;2.80;;;0.50;;
2598;SDS011;1309;48.810;8.954;2023-04-01T06:04:38;3.40;;;0.60;;
2598;SDS011;1309;48.810;8.954;2023-04-01T06:07:16;2.43;;;0.53;;
2598;SDS011;1309;48.810;8.954;2023-04-01T06:09:45;1.50;;;0.60;;
2598;SDS011;1309;48.810;8.954;2023-04-01T06:12:20;2.40;;;0.90;;
2598;SDS011;1309;48.810;8.954;2023-04-01T06:15:06;1.97;;;0.67;;
2598;SDS011;1309;48.810;8.954;2023-04-01T06:17:49;4.53;;;0.80;;
2598;SDS011;1309;48.810;8.954;2023-04-01T06:20:39;2.00;;;0.60;;
2598;SDS011;1309;48.810;8.954;2023-04-01T06:23:14;2.43;;;0.60;;
2598;SDS011;1309;48.810;8.954;2023-04-01T06:25:54;1.60;;;0.70;;
2598;SDS011;1309;48.810;8.954;2023-04-01T06:28:55;1.60;;;0.67;;
2598;SDS011;1309;48.810;8.954;2023-04-01T06:31:49;1.87;;;0.50;;
2598;SDS011;1309;48.810;8.954;2023-04-01T06:34:36;1.50;;;0.50;;
2598;SDS011;1309;48.810;8.954;2023-04-01T06:37:26;1.50;;;0.50;;
2598;SDS011;1309;48.810;8.954;2023-04-01T06:40:21;1.77;;;0.50;;
2598;SDS011;1309;48.810;8.954;2023-04-01T06:43:05;1.50;;;0.67;;
2598;SDS011;1309;48.810;8.954;2023-04-01T06:45:47;2.70;;;0.60;;
2598;SDS011;1309;48.810;8.954;2023-04-01T06:48:34;2.20;;;0.57;;
2598;SDS011;1309;48.810;8.954;2023-04-01T06:51:12;3.00;;;0.60;;
2598;SDS011;1309;48.810;8.954;2023-04-01T06:53:50;1.60;;;0.80;;
2598;SDS011;1309;48.810;8.954;2023-04-01T06:56:28;3.50;;;0.93;;
2598;SDS011;1309;48.810;8.954;2023-04-01T06:58:59;1.73;;;0.80;;
2598;SDS011;1309;48.810;8.954;2023-04-01T07:01:35;2.40;;;0.50;;
2598;SDS011;1309;48.810;8.954;2023-04-01T07:04:18;1.30;;;0.40;;
2598;SDS011;1309;48.810;8.954;2023-04-01T07:06:53;2.37;;;0.70;;
2598;SDS011;1309;48.810;8.954;2023-04-01T07:09:24;2.97;;;1.17;;
2598;SDS011;1309;48.810;8.954;2023-04-01T07:11:57;1.47;;;0.50;;
2598;SDS011;1309;48.810;8.954;2023-04-01T07:14:32;2.83;;;0.50;;
2598;SDS011;1309;48.810;8.954;2023-04-01T07:17:14;1.70;;;0.73;;
2598;SDS011;1309;48.810;8.954;2023-04-01T07:19:45;1.70;;;0.60;;
2598;SDS011;1309;48.810;8.954;2023-04-01T07:22:20;2.00;;;0.70;;
2598;SDS011;1309;48.810;8.954;2023-04-01T07:25:11;2.30;;;0.70;;
2598;SDS011;1309;48.810;8.954;2023-04-01T07:27:53;1.80;;;0.50;;
2598;SDS011;1309;48.810;8.954;2023-04-01T07:30:24;2.10;;;0.60;;
2598;SDS011;1309;48.810;8.954;2023-04-01T07:33:03;2.23;;;0.50;;
2598;SDS011;1309;48.810;8.954;2023-04-01T07:35:38;2.80;;;0.33;;
2598;SDS011;1309;48.810;8.954;2023-04-01T07:38:15;2.40;;;0.97;;
2598;SDS011;1309;48.810;8.954;2023-04-01T07:40:55;2.37;;;0.90;;
2598;SDS011;1309;48.810;8.954;2023-04-01T07:43:41;1.90;;;0.70;;
2598;SDS011;1309;48.810;8.954;2023-04-01T07:46:23;1.70;;;0.70;;
2598;SDS011;1309;48.810;8.954;2023-04-01T07:49:11;2.13;;;0.80;;
2598;SDS011;1309;48.810;8.954;2023-04-01T07:51:46;1.50;;;0.50;;
2598;SDS011;1309;48.810;8.954;2023-04-01T07:54:26;2.63;;;0.60;;
2598;SDS011;1309;48.810;8.954;2023-04-01T07:57:05;1.40;;;0.50;;
2598;SDS011;1309;48.810;8.954;2023-04-01T07:59:40;2.47;;;0.50;;
2598;SDS011;1309;48.810;8.954;2023-04-01T08:02:19;2.33;;;0.70;;
2598;SDS011;1309;48.810;8.954;2023-04-01T08:05:03;3.60;;;0.67;;
2598;SDS011;1309;48.810;8.954;2023-04-01T08:07:42;3.50;;;0.63;;
2598;SDS011;1309;48.810;8.954;2023-04-01T08:10:15;1.60;;;0.67;;
2598;SDS011;1309;48.810;8.954;2023-04-01T08:12:52;2.07;;;0.67;;
2598;SDS011;1309;48.810;8.954;2023-04-01T08:15:28;2.20;;;0.77;;
2598;SDS011;1309;48.810;8.954;2023-04-01T08:18:04;2.80;;;1.63;;
2598;SDS011;1309;48.810;8.954;2023-04-01T08:20:44;1.70;;;0.80;;
2598;SDS011;1309;48.810;8.954;2023-04-01T08:23:21;2.10;;;1.00;;
2598;SDS011;1309;48.810;8.954;2023-04-01T08:25:52;1.70;;;0.90;;
2598;SDS011;1309;48.810;8.954;2023-04-01T08:28:24;2.60;;;0.80;;
2598;SDS011;1309;48.810;8.954;2023-04-01T08:30:56;1.90;;;0.97;;
2598;SDS011;1309;48.810;8.954;2023-04-01T08:33:27;1.97;;;1.10;;
2598;SDS011;1309;48.810;8.954;2023-04-01T08:36:01;1.63;;;0.60;;
2598;SDS011;1309;48.810;8.954;2023-04-01T08:38:36;2.47;;;1.10;;
2598;SDS011;1309;48.810;8.954;2023-04-01T08:41:16;3.50;;;1.43;;
2598;SDS011;1309;48.810;8.954;2023-04-01T08:47:02;3.00;;;1.20;;
2598;SDS011;1309;48.810;8.954;2023-04-01T08:49:42;2.07;;;1.10;;
2598;SDS011;1309;48.810;8.954;2023-04-01T08:52:43;2.03;;;1.07;;
2598;SDS011;1309;48.810;8.954;2023-04-01T08:55:22;1.77;;;0.70;;
2598;SDS011;1309;48.810;8.954;2023-04-01T09:01:14;1.60;;;0.60;;
2598;SDS011;1309;48.810;8.954;2023-04-01T09:03:57;2.03;;;0.60;;
2598;SDS011;1309;48.810;8.954;2023-04-01T09:06:35;1.80;;;0.50;;
2598;SDS011;1309;48.810;8.954;2023-04-01T09:09:13;1.60;;;0.70;;
2598;SDS011;1309;48.810;8.954;2023-04-01T09:11:59;3.13;;;1.10;;
2598;SDS011;1309;48.810;8.954;2023-04-01T09:14:45;1.33;;;0.40;;
2598;SDS011;1309;48.810;8.954;2023-04-01T09:20:52;1.70;;;0.60;;
2598;SDS011;1309;48.810;8.954;2023-04-01T09:27:05;2.30;;;0.70;;
2598;SDS011;1309;48.810;8.954;2023-04-01T09:29:50;1.50;;;0.37;;
2598;SDS011;1309;48.810;8.954;2023-04-01T09:36:12;1.50;;;0.40;;
2598;SDS011;1309;48.810;8.954;2023-04-01T09:39:06;1.40;;;0.37;;
2598;SDS011;1309;48.810;8.954;2023-04-01T09:44:44;1.47;;;0.50;;
2598;SDS011;1309;48.810;8.954;2023-04-01T09:53:19;1.40;;;0.30;;
2598;SDS011;1309;48.810;8.954;2023-04-01T10:21:16;1.70;;;0.40;;
2598;SDS011;1309;48.810;8.954;2023-04-01T10:24:14;2.50;;;0.50;;
2598;SDS011;1309;48.810;8.954;2023-04-01T10:36:35;2.37;;;0.50;;
2598;SDS011;1309;48.810;8.954;2023-04-01T10:39:29;1.50;;;0.40;;
2598;SDS011;1309;48.810;8.954;2023-04-01T10:42:23;1.83;;;0.50;;
2598;SDS011;1309;48.810;8.954;2023-04-01T10:45:32;1.77;;;0.40;;
2598;SDS011;1309;48.810;8.954;2023-04-01T10:51:58;1.60;;;0.40;;
2598;SDS011;1309;48.810;8.954;2023-04-01T10:54:56;1.80;;;0.50;;
2598;SDS011;1309;48.810;8.954;2023-04-01T10:57:44;2.70;;;0.53;;
2598;SDS011;1309;48.810;8.954;2023-04-01T11:00:26;1.40;;;0.40;;
2598;SDS011;1309;48.810;8.954;2023-04-01T11:13:05;1.40;;;0.40;;
2598;SDS011;1309;48.810;8.954;2023-04-01T11:16:03;1.70;;;0.40;;
2598;SDS011;1309;48.810;8.954;2023-04-01T11:19:10;1.80;;;0.53;;
2598;SDS011;1309;48.810;8.954;2023-04-01T11:22:30;1.40;;;0.30;;
2598;SDS011;1309;48.810;8.954;2023-04-01T11:28:46;1.73;;;0.40;;
2598;SDS011;1309;48.810;8.954;2023-04-01T11:31:35;1.63;;;0.63;;
2598;SDS011;1309;48.810;8.954;2023-04-01T11:34:16;1.50;;;0.40;;
2598;SDS011;1309;48.810;8.954;2023-04-01T11:37:12;1.70;;;0.50;;
2598;SDS011;1309;48.810;8.954;2023-04-01T11:40:09;1.67;;;0.40;;
2598;SDS011;1309;48.810;8.954;2023-04-01T11:42:44;1.50;;;0.40;;
2598;SDS011;1309;48.810;8.954;2023-04-01T11:45:24;1.43;;;0.30;;
2598;SDS011;1309;48.810;8.954;2023-04-01T11:48:12;1.50;;;0.40;;
2598;SDS011;1309;48.810;8.954;2023-04-01T11:50:50;1.80;;;0.50;;
2598;SDS011;1309;48.810;8.954;2023-04-01T11:53:36;1.80;;;0.50;;
2598;SDS011;1309;48.810;8.954;2023-04-01T11:56:15;2.73;;;0.30;;
2598;SDS011;1309;48.810;8.954;2023-04-01T11:58:53;1.50;;;0.40;;
2598;SDS011;1309;48.810;8.954;2023-04-01T12:04:29;1.40;;;0.40;;
2598;SDS011;1309;48.810;8.954;2023-04-01T12:07:06;1.40;;;0.33;;
2598;SDS011;1309;48.810;8.954;2023-04-01T12:09:48;1.50;;;0.47;;
2598;SDS011;1309;48.810;8.954;2023-04-01T12:12:23;1.40;;;0.40;;
2598;SDS011;1309;48.810;8.954;2023-04-01T12:14:59;1.47;;;0.30;;
2598;SDS011;1309;48.810;8.954;2023-04-01T12:17:36;1.40;;;0.30;;
2598;SDS011;1309;48.810;8.954;2023-04-01T12:20:20;1.40;;;0.30;;
2598;SDS011;1309;48.810;8.954;2023-04-01T12:22:59;1.40;;;0.50;;
2598;SDS011;1309;48.810;8.954;2023-04-01T12:25:53;1.70;;;0.40;;
2598;SDS011;1309;48.810;8.954;2023-04-01T12:28:37;1.80;;;0.57;;
2598;SDS011;1309;48.810;8.954;2023-04-01T12:31:15;1.50;;;0.40;;
2598;SDS011;1309;48.810;8.954;2023-04-01T12:33:56;3.20;;;0.50;;
2598;SDS011;1309;48.810;8.954;2023-04-01T12:36:48;1.50;;;0.30;;
2598;SDS011;1309;48.810;8.954;2023-04-01T12:42:34;1.40;;;0.40;;
2598;SDS011;1309;48.810;8.954;2023-04-01T12:45:18;1.50;;;0.40;;
2598;SDS011;1309;48.810;8.954;2023-04-01T12:51:16;1.83;;;0.50;;
2598;SDS011;1309;48.810;8.954;2023-04-01T12:54:05;1.60;;;0.47;;
2598;SDS011;1309;48.810;8.954;2023-04-01T12:56:49;1.80;;;0.47;;
2598;SDS011;1309;48.810;8.954;2023-04-01T12:59:39;1.47;;;0.43;;
2598;SDS011;1309;48.810;8.954;2023-04-01T13:02:21;1.40;;;0.40;;
2598;SDS011;1309;48.810;8.954;2023-04-01T13:08:00;1.50;;;0.40;;
2598;SDS011;1309;48.810;8.954;2023-04-01T13:10:45;2.00;;;0.47;;
2598;SDS011;1309;48.810;8.954;2023-04-01T13:16:57;4.20;;;1.83;;
2598;SDS011;1309;48.810;8.954;2023-04-01T13:19:38;3.03;;;1.10;;
2598;SDS011;1309;48.810;8.954;2023-04-01T13:22:41;1.43;;;0.40;;
2598;SDS011;1309;48.810;8.954;2023-04-01T13:25:26;1.40;;;0.37;;
2598;SDS011;1309;48.810;8.954;2023-04-01T13:28:00;1.40;;;0.30;;
2598;SDS011;1309;48.810;8.954;2023-04-01T13:30:34;1.70;;;0.50;;
2598;SDS011;1309;48.810;8.954;2023-04-01T13:33:09;1.90;;;0.90;;
2598;SDS011;1309;48.810;8.954;2023-04-01T13:35:44;1.80;;;0.60;;
2598;SDS011;1309;48.810;8.954;2023-04-01T13:38:30;1.50;;;0.57;;
2598;SDS011;1309;48.810;8.954;2023-04-01T13:41:18;2.20;;;0.90;;
2598;SDS011;1309;48.810;8.954;2023-04-01T13:44:09;3.40;;;0.80;;
2598;SDS011;1309;48.810;8.954;2023-04-01T13:46:47;1.50;;;0.50;;
2598;SDS011;1309;48.810;8.954;2023-04-01T13:49:34;2.17;;;0.60;;
2598;SDS011;1309;48.810;8.954;2023-04-01T13:52:17;1.70;;;0.40;;
2598;SDS011;1309;48.810;8.954;2023-04-01T13:58:03;1.40;;;0.40;;
2598;SDS011;1309;48.810;8.954;2023-04-01T14:00:42;1.67;;;0.60;;
2598;SDS011;1309;48.810;8.954;2023-04-01T14:03:27;1.60;;;0.57;;
2598;SDS011;1309;48.810;8.954;2023-04-01T14:06:09;2.20;;;0.70;;
2598;SDS011;1309;48.810;8.954;2023-04-01T14:08:51;1.90;;;0.60;;
2598;SDS011;1309;48.810;8.954;2023-04-01T14:11:31;1.70;;;0.50;;
2598;SDS011;1309;48.810;8.954;2023-04-01T14:14:05;1.50;;;0.40;;
2598;SDS011;1309;48.810;8.954;2023-04-01T14:23:17;1.80;;;0.80;;
2598;SDS011;1309;48.810;8.954;2023-04-01T14:26:15;1.80;;;0.80;;
2598;SDS011;1309;48.810;8.954;2023-04-01T14:28:55;2.03;;;0.67;;
2598;SDS011;1309;48.810;8.954;2023-04-01T14:31:36;2.27;;;1.00;;
2598;SDS011;1309;48.810;8.954;2023-04-01T14:34:16;3.20;;;1.10;;
2598;SDS011;1309;48.810;8.954;2023-04-01T14:36:51;1.70;;;0.70;;
2598;SDS011;1309;48.810;8.954;2023-04-01T14:39:36;2.03;;;0.60;;
2598;SDS011;1309;48.810;8.954;2023-04-01T14:48:21;2.50;;;0.77;;
2598;SDS011;1309;48.810;8.954;2023-04-01T14:50:53;1.80;;;0.67;;
2598;SDS011;1309;48.810;8.954;2023-04-01T14:53:49;3.50;;;1.30;;
2598;SDS011;1309;48.810;8.954;2023-04-01T14:56:40;2.23;;;0.70;;
2598;SDS011;1309;48.810;8.954;2023-04-01T14:59:29;1.70;;;0.70;;
2598;SDS011;1309;48.810;8.954;2023-04-01T15:02:08;2.03;;;0.77;;
2598;SDS011;1309;48.810;8.954;2023-04-01T15:04:53;2.37;;;1.07;;
2598;SDS011;1309;48.810;8.954;2023-04-01T15:07:36;2.77;;;1.10;;
2598;SDS011;1309;48.810;8.954;2023-04-01T15:13:43;2.47;;;1.10;;
2598;SDS011;1309;48.810;8.954;2023-04-01T15:16:24;2.03;;;1.00;;
2598;SDS011;1309;48.810;8.954;2023-04-01T15:18:56;1.73;;;0.90;;
2598;SDS011;1309;48.810;8.954;2023-04-01T15:24:38;2.40;;;1.10;;
2598;SDS011;1309;48.810;8.954;2023-04-01T15:27:18;1.97;;;1.07;;
2598;SDS011;1309;48.810;8.954;2023-04-01T15:30:02;3.70;;;1.43;;
2598;SDS011;1309;48.810;8.954;2023-04-01T15:32:44;2.60;;;1.50;;
2598;SDS011;1309;48.810;8.954;2023-04-01T15:35:21;2.10;;;0.87;;
2598;SDS011;1309;48.810;8.954;2023-04-01T15:38:02;2.90;;;0.87;;
2598;SDS011;1309;48.810;8.954;2023-04-01T15:40:40;3.13;;;1.43;;
2598;SDS011;1309;48.810;8.954;2023-04-01T15:43:13;1.93;;;1.00;;
2598;SDS011;1309;48.810;8.954;2023-04-01T15:45:50;2.10;;;1.20;;
2598;SDS011;1309;48.810;8.954;2023-04-01T15:48:27;1.60;;;0.53;;
2598;SDS011;1309;48.810;8.954;2023-04-01T15:51:14;1.60;;;0.57;;
2598;SDS011;1309;48.810;8.954;2023-04-01T15:53:56;3.67;;;1.70;;
2598;SDS011;1309;48.810;8.954;2023-04-01T15:56:42;2.60;;;0.70;;
2598;SDS011;1309;48.810;8.954;2023-04-01T15:59:26;2.40;;;0.93;;
2598;SDS011;1309;48.810;8.954;2023-04-01T16:02:12;2.33;;;1.33;;
2598;SDS011;1309;48.810;8.954;2023-04-01T16:04:48;4.60;;;2.20;;
2598;SDS011;1309;48.810;8.954;2023-04-01T16:07:30;3.10;;;1.33;;
2598;SDS011;1309;48.810;8.954;2023-04-01T16:10:21;3.73;;;1.83;;
2598;SDS011;1309;48.810;8.954;2023-04-01T16:13:04;2.10;;;1.00;;
2598;SDS011;1309;48.810;8.954;2023-04-01T16:15:50;3.63;;;1.80;;
2598;SDS011;1309;48.810;8.954;2023-04-01T16:18:33;2.90;;;1.27;;
2598;SDS011;1309;48.810;8.954;2023-04-01T16:21:14;1.70;;;0.67;;
2598;SDS011;1309;48.810;8.954;2023-04-01T16:23:55;2.33;;;0.73;;
2598;SDS011;1309;48.810;8.954;2023-04-01T16:26:28;2.43;;;0.70;;
2598;SDS011;1309;48.810;8.954;2023-04-01T16:29:03;2.17;;;0.73;;
2598;SDS011;1309;48.810;8.954;2023-04-01T16:31:36;1.60;;;0.60;;
2598;SDS011;1309;48.810;8.954;2023-04-01T16:34:14;1.70;;;0.80;;
2598;SDS011;1309;48.810;8.954;2023-04-01T16:36:48;1.70;;;0.70;;
2598;SDS011;1309;48.810;8.954;2023-04-01T16:39:32;2.53;;;1.00;;
2598;SDS011;1309;48.810;8.954;2023-04-01T16:42:14;1.77;;;0.70;;
2598;SDS011;1309;48.810;8.954;2023-04-01T16:44:52;1.83;;;1.00;;
2598;SDS011;1309;48.810;8.954;2023-04-01T16:47:23;3.70;;;0.70;;
2598;SDS011;1309;48.810;8.954;2023-04-01T16:49:59;2.07;;;1.00;;
2598;SDS011;1309;48.810;8.954;2023-04-01T16:52:36;3.70;;;1.80;;
2598;SDS011;1309;48.810;8.954;2023-04-01T16:55:14;3.23;;;1.20;;
2598;SDS011;1309;48.810;8.954;2023-04-01T16:57:45;2.43;;;1.00;;
2598;SDS011;1309;48.810;8.954;2023-04-01T17:00:22;1.80;;;0.73;;
2598;SDS011;1309;48.810;8.954;2023-04-01T17:03:04;4.43;;;1.40;;
2598;SDS011;1309;48.810;8.954;2023-04-01T17:06:05;2.57;;;1.17;;
2598;SDS011;1309;48.810;8.954;2023-04-01T17:08:45;3.90;;;1.57;;
2598;SDS011;1309;48.810;8.954;2023-04-01T17:11:31;4.70;;;1.70;;
2598;SDS011;1309;48.810;8.954;2023-04-01T17:14:04;2.40;;;1.20;;
2598;SDS011;1309;48.810;8.954;2023-04-01T17:16:46;2.13;;;0.93;;
2598;SDS011;1309;48.810;8.954;2023-04-01T17:19:49;5.97;;;2.53;;
2598;SDS011;1309;48.810;8.954;2023-04-01T17:22:33;7.50;;;3.37;;
2598;SDS011;1309;48.810;8.954;2023-04-01T17:25:12;3.27;;;1.73;;
2598;SDS011;1309;48.810;8.954;2023-04-01T17:27:50;3.17;;;1.40;;
2598;SDS011;1309;48.810;8.954;2023-04-01T17:30:30;2.27;;;1.03;;
2598;SDS011;1309;48.810;8.954;2023-04-01T17:33:20;5.00;;;1.40;;
2598;SDS011;1309;48.810;8.954;2023-04-01T17:36:03;3.90;;;1.87;;
2598;SDS011;1309;48.810;8.954;2023-04-01T17:38:45;4.10;;;1.10;;
2598;SDS011;1309;48.810;8.954;2023-04-01T17:41:25;2.97;;;1.60;;
2598;SDS011;1309;48.810;8.954;2023-04-01T17:43:59;2.83;;;0.80;;
2598;SDS011;1309;48.810;8.954;2023-04-01T17:46:50;2.67;;;1.13;;
2598;SDS011;1309;48.810;8.954;2023-04-01T17:49:30;2.83;;;1.20;;
2598;SDS011;1309;48.810;8.954;2023-04-01T17:52:05;5.43;;;1.13;;
2598;SDS011;1309;48.810;8.954;2023-04-01T17:54:44;2.47;;;1.00;;
2598;SDS011;1309;48.810;8.954;2023-04-01T17:57:25;2.60;;;1.73;;
2598;SDS011;1309;48.810;8.954;2023-04-01T18:00:03;6.90;;;3.13;;
2598;SDS011;1309;48.810;8.954;2023-04-01T18:02:45;4.07;;;1.87;;
2598;SDS011;1309;48.810;8.954;2023-04-01T18:05:24;8.40;;;3.20;;
2598;SDS011;1309;48.810;8.954;2023-04-01T18:08:00;4.20;;;2.13;;
2598;SDS011;1309;48.810;8.954;2023-04-01T18:10:51;2.93;;;1.70;;
2598;SDS011;1309;48.810;8.954;2023-04-01T18:16:33;2.10;;;0.97;;
2598;SDS011;1309;48.810;8.954;2023-04-01T18:19:15;6.20;;;2.00;;
2598;SDS011;1309;48.810;8.954;2023-04-01T18:21:50;3.30;;;1.60;;
2598;SDS011;1309;48.810;8.954;2023-04-01T18:24:23;3.20;;;1.20;;
2598;SDS011;1309;48.810;8.954;2023-04-01T18:27:01;5.83;;;1.60;;